Accueil
METAR-TAF:

METAR-TAF

Aéroports :

Aéroport international de Sunan

Pyongyang, Corée du Nord

latitude: 39-02N, longitude: 125-47E, altitude: 36 m

METAR: absent

Heure: 00:57 (15:57 UTC)

Prévision

Le bulletin a été fait il y a 6 heures et 7 minutes, à 09:50 UTC
Prévision valable du 21 à 12 UTC au 22 à 12 UTC
Vent 6 kt de sud/sud-est
Visibilité: 7000 m

TAF: ZKPY 210950Z 2112/2212 16003MPS 7000 NSC TX14/2206Z TNM01/2121Z

Observations et prévisions météorologiques de plus de 4000 aéroports (messages METAR et TAF).

Les stations disponibles sont représentées par des disques jaunes et rouges sur la carte.

Passer la souris dessus pour voir le nom de la station.

Cliquer dessus pour voir les observations et prévisions météorologiques.

Pour changer de carte: cliquez sur les boutons verts avec une croix noire pour zoomer, sur le bouton vert avec un tiret pour effectuer un zoom arrière, ou sur les flèches vertes pour les cartes adjacentes.


METAR-TAF: